createdAt,value
2022-11-24T00:01:26.493Z,88.40
2022-11-24T00:04:05.624Z,88.80
2022-11-24T00:06:35.198Z,89.90
2022-11-24T00:09:04.252Z,90.20
2022-11-24T00:11:36.397Z,90.40
2022-11-24T00:14:05.256Z,91.20
2022-11-24T00:16:35.309Z,91.00
2022-11-24T00:19:05.097Z,91.20
2022-11-24T00:21:32.733Z,91.80
2022-11-24T00:24:00.052Z,91.90
2022-11-24T00:26:29.961Z,92.70
2022-11-24T00:29:02.313Z,93.00
2022-11-24T00:31:31.504Z,93.20
2022-11-24T00:34:00.756Z,93.50
2022-11-24T00:36:31.066Z,93.20
2022-11-24T00:39:01.265Z,93.30
2022-11-24T00:41:29.601Z,93.30
2022-11-24T00:43:57.520Z,93.20
2022-11-24T00:46:25.705Z,93.20
2022-11-24T00:48:54.150Z,93.50
2022-11-24T00:51:24.230Z,93.30
2022-11-24T00:53:51.446Z,93.60
2022-11-24T00:56:18.822Z,94.20
2022-11-24T00:58:46.119Z,94.30
2022-11-24T01:01:18.326Z,94.50
2022-11-24T01:03:46.954Z,94.60
2022-11-24T01:06:20.087Z,94.80
2022-11-24T01:08:47.633Z,94.50
2022-11-24T01:11:24.030Z,94.30
2022-11-24T01:13:59.375Z,94.60
2022-11-24T01:16:33.448Z,94.70
2022-11-24T01:19:01.628Z,94.70
2022-11-24T01:21:28.828Z,94.90
2022-11-24T01:23:56.095Z,95.30
2022-11-24T01:26:23.684Z,95.70
2022-11-24T01:28:57.957Z,96.20
2022-11-24T01:31:26.334Z,96.20
2022-11-24T01:33:53.800Z,96.90
2022-11-24T01:36:21.613Z,96.80
2022-11-24T01:38:49.070Z,96.80
2022-11-24T01:41:21.846Z,97.10
2022-11-24T01:43:50.536Z,97.20
2022-11-24T01:46:23.903Z,97.90
2022-11-24T01:49:14.077Z,98.00
2022-11-24T01:52:04.408Z,98.30
2022-11-24T01:54:36.801Z,99.10
2022-11-24T01:57:15.135Z,99.50
2022-11-24T01:59:43.605Z,99.90
2022-11-24T02:02:11.680Z,99.90
2022-11-24T02:04:39.453Z,99.90
2022-11-24T02:07:07.792Z,99.90
2022-11-24T02:09:42.842Z,99.90
2022-11-24T02:12:10.184Z,99.90
2022-11-24T02:14:40.404Z,99.90
2022-11-24T02:17:08.707Z,99.90
2022-11-24T02:19:48.859Z,99.90
2022-11-24T02:22:29.767Z,99.90
2022-11-24T02:25:07.324Z,99.90
2022-11-24T02:27:34.646Z,99.90
2022-11-24T02:30:02.255Z,99.90
2022-11-24T02:32:32.195Z,99.90
2022-11-24T02:35:05.088Z,99.90
2022-11-24T02:37:32.290Z,99.90
2022-11-24T02:39:59.338Z,99.90
2022-11-24T02:42:29.959Z,99.90
2022-11-24T02:45:00.525Z,99.90
2022-11-24T02:47:28.098Z,99.90
2022-11-24T02:49:55.138Z,99.90
2022-11-24T02:52:22.475Z,99.90
2022-11-24T02:54:49.612Z,99.90
2022-11-24T02:57:16.750Z,99.90
2022-11-24T02:59:44.028Z,99.90
2022-11-24T03:02:11.151Z,99.90
2022-11-24T03:04:38.293Z,99.90
2022-11-24T03:07:05.556Z,99.90
2022-11-24T03:09:32.758Z,99.90
2022-11-24T03:11:59.867Z,99.90
2022-11-24T03:14:27.172Z,99.90
2022-11-24T03:16:54.341Z,99.90
2022-11-24T03:19:21.443Z,99.90
2022-11-24T03:21:48.625Z,99.90
2022-11-24T03:24:15.992Z,99.90
2022-11-24T03:26:43.240Z,99.90
2022-11-24T03:29:10.425Z,99.90
2022-11-24T03:31:37.812Z,99.90
2022-11-24T03:34:05.281Z,99.90
2022-11-24T03:36:32.411Z,99.90
2022-11-24T03:38:59.445Z,99.90
2022-11-24T03:41:26.704Z,99.90
2022-11-24T03:43:53.716Z,99.90
2022-11-24T03:46:20.968Z,99.90
2022-11-24T03:48:48.152Z,99.90
2022-11-24T03:51:15.522Z,99.90
2022-11-24T03:53:42.603Z,99.90
2022-11-24T03:56:09.964Z,99.90
2022-11-24T03:58:37.238Z,99.90
2022-11-24T04:01:04.649Z,99.90
2022-11-24T04:03:31.885Z,99.90
2022-11-24T04:05:59.208Z,99.90
2022-11-24T04:08:26.517Z,99.90
2022-11-24T04:10:54.803Z,99.90
2022-11-24T04:13:23.776Z,99.90
2022-11-24T04:15:51.545Z,99.90
2022-11-24T04:18:19.558Z,99.90
2022-11-24T04:20:51.919Z,99.90
2022-11-24T04:23:19.486Z,99.90
2022-11-24T04:25:46.787Z,99.90
2022-11-24T04:28:14.163Z,99.90
2022-11-24T04:30:44.892Z,99.90
2022-11-24T04:33:12.448Z,99.90
2022-11-24T04:35:39.772Z,99.90
2022-11-24T04:38:07.083Z,99.90
2022-11-24T04:40:34.357Z,99.90
2022-11-24T04:43:01.560Z,99.90
2022-11-24T04:45:28.745Z,99.90
2022-11-24T04:47:55.863Z,99.90
2022-11-24T04:50:22.971Z,99.90
2022-11-24T04:52:50.077Z,99.90
2022-11-24T04:55:17.244Z,99.90
2022-11-24T04:57:44.478Z,99.90
2022-11-24T05:00:12.194Z,99.90
2022-11-24T05:02:39.639Z,99.90
2022-11-24T05:05:07.683Z,99.90
2022-11-24T05:07:35.039Z,99.90
2022-11-24T05:10:20.914Z,99.90
2022-11-24T05:12:59.573Z,99.90
2022-11-24T05:15:27.382Z,99.90
2022-11-24T05:17:54.605Z,99.90
2022-11-24T05:20:21.749Z,99.90
2022-11-24T05:22:49.124Z,99.90
2022-11-24T05:25:16.507Z,99.90
2022-11-24T05:27:44.141Z,99.90
2022-11-24T05:30:12.317Z,99.90
2022-11-24T05:32:39.373Z,99.90
2022-11-24T05:35:08.626Z,99.90
2022-11-24T05:37:35.976Z,99.90
2022-11-24T05:40:03.460Z,99.90
2022-11-24T05:42:47.057Z,99.90
2022-11-24T05:45:20.872Z,99.90
2022-11-24T05:47:49.426Z,99.90
2022-11-24T05:50:19.013Z,99.90
2022-11-24T05:52:46.179Z,99.90
2022-11-24T05:55:19.632Z,99.90
2022-11-24T05:57:47.218Z,99.90
2022-11-24T06:00:15.818Z,99.90
2022-11-24T06:02:42.993Z,99.90
2022-11-24T06:05:10.207Z,99.90
2022-11-24T06:07:37.473Z,99.90
2022-11-24T06:10:05.628Z,99.90
2022-11-24T06:12:33.270Z,99.90
2022-11-24T06:15:00.365Z,99.90
2022-11-24T06:17:28.197Z,99.90
2022-11-24T06:19:55.461Z,99.90
2022-11-24T06:22:22.750Z,99.90
2022-11-24T06:24:51.260Z,99.90
2022-11-24T06:27:18.629Z,99.90
2022-11-24T06:29:46.163Z,99.90
2022-11-24T06:32:13.289Z,99.90
2022-11-24T06:34:40.626Z,99.90
2022-11-24T06:37:08.077Z,99.90
2022-11-24T06:39:35.403Z,99.90
2022-11-24T06:42:02.581Z,99.90
2022-11-24T06:44:29.989Z,99.90
2022-11-24T06:46:57.229Z,99.90
2022-11-24T06:49:24.445Z,99.90
2022-11-24T06:51:51.591Z,99.90
2022-11-24T06:54:21.400Z,99.90
2022-11-24T06:56:48.549Z,99.90
2022-11-24T06:59:20.704Z,99.90
2022-11-24T07:01:48.156Z,99.90
2022-11-24T07:04:15.959Z,99.90
2022-11-24T07:06:43.541Z,99.90
2022-11-24T07:09:12.061Z,99.90
2022-11-24T07:11:40.357Z,99.60
2022-11-24T07:14:07.819Z,98.80
2022-11-24T07:16:35.185Z,98.40
2022-11-24T07:19:02.493Z,98.20
2022-11-24T07:21:30.885Z,98.10
2022-11-24T07:23:59.005Z,97.90
2022-11-24T07:26:26.705Z,97.60
2022-11-24T07:28:54.608Z,97.20
2022-11-24T07:31:26.155Z,96.60
2022-11-24T07:33:54.955Z,95.90
2022-11-24T07:36:23.171Z,95.50
2022-11-24T07:38:50.807Z,94.60
2022-11-24T07:41:19.916Z,94.50
2022-11-24T07:43:47.940Z,94.50
2022-11-24T07:46:17.436Z,94.40
2022-11-24T07:48:45.174Z,93.50
2022-11-24T07:51:12.630Z,93.00
2022-11-24T07:53:40.044Z,92.40
2022-11-24T07:56:07.704Z,91.90
2022-11-24T07:58:37.357Z,91.20
2022-11-24T08:01:18.187Z,90.40
2022-11-24T08:03:46.278Z,88.60
2022-11-24T08:06:38.138Z,88.10
2022-11-24T08:09:01.462Z,88.00
2022-11-24T08:11:29.130Z,87.70
2022-11-24T08:13:56.278Z,87.40
2022-11-24T08:16:23.636Z,87.50
2022-11-24T08:18:52.796Z,86.90
2022-11-24T08:21:20.810Z,86.60
2022-11-24T08:23:47.945Z,86.00
2022-11-24T08:26:18.249Z,86.00
2022-11-24T08:28:46.777Z,85.60
2022-11-24T08:31:18.852Z,85.40
2022-11-24T08:33:46.744Z,84.90
2022-11-24T08:36:19.253Z,84.50
2022-11-24T08:38:49.026Z,83.60
2022-11-24T08:41:17.458Z,82.40
2022-11-24T08:43:45.127Z,82.10
2022-11-24T08:46:17.201Z,81.30
2022-11-24T08:48:55.430Z,79.30
2022-11-24T08:51:26.093Z,77.90
2022-11-24T08:53:58.635Z,76.40
2022-11-24T08:56:31.463Z,73.50
2022-11-24T08:58:59.462Z,71.50
2022-11-24T09:01:27.803Z,71.20
2022-11-24T09:03:55.544Z,69.90
2022-11-24T09:06:25.803Z,68.40
2022-11-24T09:08:55.647Z,68.10
2022-11-24T09:11:24.583Z,68.10
2022-11-24T09:13:51.887Z,68.10
2022-11-24T09:16:27.161Z,68.10
2022-11-24T09:19:01.487Z,66.30
2022-11-24T09:21:30.339Z,68.10
2022-11-24T09:23:58.137Z,70.60
2022-11-24T09:26:31.247Z,70.90
2022-11-24T09:28:59.987Z,66.30
2022-11-24T09:31:29.850Z,71.20
2022-11-24T09:33:57.845Z,72.30
2022-11-24T09:36:25.546Z,72.00
2022-11-24T09:38:52.778Z,75.10
2022-11-24T09:41:41.060Z,77.20
2022-11-24T09:44:11.273Z,78.10
2022-11-24T09:46:56.765Z,76.90
2022-11-24T09:49:51.649Z,75.60
2022-11-24T09:52:38.607Z,75.40
2022-11-24T09:55:22.039Z,75.40
2022-11-24T09:58:03.492Z,74.80
2022-11-24T10:00:31.353Z,74.40
2022-11-24T10:02:58.738Z,72.10
2022-11-24T10:05:29.342Z,70.70
2022-11-24T10:08:22.956Z,69.70
2022-11-24T10:11:01.578Z,68.60
2022-11-24T10:13:58.002Z,68.90
2022-11-24T10:16:28.222Z,69.30
2022-11-24T10:19:14.640Z,70.20
2022-11-24T10:21:47.489Z,69.70
2022-11-24T10:24:23.346Z,68.40
2022-11-24T10:27:17.722Z,67.60
2022-11-24T10:29:48.410Z,66.30
2022-11-24T10:32:22.093Z,65.40
2022-11-24T10:34:50.796Z,63.20
2022-11-24T10:37:23.899Z,61.90
2022-11-24T10:40:48.671Z,62.10
2022-11-24T10:43:12.895Z,61.50
2022-11-24T10:45:40.798Z,61.00
2022-11-24T10:48:22.303Z,60.10
2022-11-24T10:50:49.503Z,59.20
2022-11-24T10:53:27.186Z,57.50
2022-11-24T10:55:57.474Z,56.30
2022-11-24T10:58:29.545Z,57.30
2022-11-24T11:01:01.900Z,55.20
2022-11-24T11:03:33.317Z,54.30
2022-11-24T11:06:13.190Z,52.80
2022-11-24T11:08:40.980Z,53.10
2022-11-24T11:11:14.603Z,54.00
2022-11-24T11:14:04.364Z,54.10
2022-11-24T11:16:53.398Z,55.30
2022-11-24T11:19:47.967Z,58.90
2022-11-24T11:22:26.650Z,59.60
2022-11-24T11:25:28.431Z,59.80
2022-11-24T11:28:18.892Z,59.90
2022-11-24T11:31:22.223Z,58.70
2022-11-24T11:34:07.264Z,54.80
2022-11-24T11:36:46.535Z,52.60
2022-11-24T11:39:28.837Z,50.10
2022-11-24T11:42:31.427Z,50.40
2022-11-24T11:45:10.385Z,50.30
2022-11-24T11:48:07.886Z,50.10
2022-11-24T11:54:02.973Z,48.30
2022-11-24T11:56:31.028Z,51.80
2022-11-24T11:59:10.237Z,53.70
2022-11-24T12:01:55.901Z,55.40
2022-11-24T12:04:29.132Z,57.00
2022-11-24T12:07:21.373Z,59.00
2022-11-24T12:10:06.620Z,61.20
2022-11-24T12:12:42.511Z,65.50
2022-11-24T12:15:39.094Z,70.00
2022-11-24T12:18:57.189Z,72.90
2022-11-24T12:21:41.556Z,75.20
2022-11-24T12:24:20.842Z,76.20
2022-11-24T12:27:23.283Z,75.70
2022-11-24T12:30:13.714Z,75.80
2022-11-24T12:32:49.802Z,76.20
2022-11-24T12:35:21.098Z,76.90
2022-11-24T12:38:28.307Z,77.70
2022-11-24T12:41:45.774Z,74.60
2022-11-24T12:44:49.335Z,72.30
2022-11-24T12:47:19.774Z,72.80
2022-11-24T12:50:08.325Z,72.70
2022-11-24T12:52:41.169Z,74.40
2022-11-24T12:55:29.589Z,76.40
2022-11-24T12:58:26.268Z,77.30
2022-11-24T13:01:29.857Z,78.70
2022-11-24T13:04:07.077Z,80.30
2022-11-24T13:07:12.759Z,79.90
2022-11-24T13:10:26.354Z,79.50
2022-11-24T13:13:08.535Z,78.50
2022-11-24T13:19:07.941Z,80.30
2022-11-24T13:21:45.608Z,80.70
2022-11-24T13:24:20.064Z,80.50
2022-11-24T13:26:51.625Z,80.20
2022-11-24T13:29:30.650Z,80.40
2022-11-24T13:32:05.901Z,80.40
2022-11-24T13:34:39.305Z,81.40
2022-11-24T13:37:35.259Z,81.20
2022-11-24T13:40:12.467Z,80.90
2022-11-24T13:42:55.148Z,81.60
2022-11-24T13:45:50.326Z,81.70
2022-11-24T13:48:21.173Z,81.90
2022-11-24T13:50:54.839Z,83.40
2022-11-24T13:53:27.863Z,82.90
2022-11-24T13:56:19.623Z,82.40
2022-11-24T13:59:01.473Z,82.40
2022-11-24T14:01:36.146Z,82.90
2022-11-24T14:04:32.927Z,83.30
2022-11-24T14:07:08.670Z,82.20
2022-11-24T14:09:52.348Z,82.70
2022-11-24T14:12:26.247Z,82.80
2022-11-24T14:14:55.800Z,82.80
2022-11-24T14:17:23.925Z,83.20
2022-11-24T14:19:53.607Z,83.30
2022-11-24T14:22:39.385Z,83.30
2022-11-24T14:25:19.059Z,82.80
2022-11-24T14:27:46.423Z,82.30
2022-11-24T14:30:13.757Z,82.40
2022-11-24T14:32:42.359Z,81.60
2022-11-24T14:35:42.279Z,81.20
2022-11-24T14:38:12.063Z,80.20
2022-11-24T14:40:52.599Z,80.40
2022-11-24T14:43:24.373Z,81.00
2022-11-24T14:45:54.692Z,81.10
2022-11-24T14:48:27.420Z,81.00
2022-11-24T14:51:05.301Z,80.10
2022-11-24T14:53:33.298Z,80.60
2022-11-24T14:56:21.724Z,80.20
2022-11-24T14:58:49.453Z,79.00
2022-11-24T15:01:30.968Z,77.60
2022-11-24T15:04:38.986Z,77.90
2022-11-24T15:07:11.597Z,77.90
2022-11-24T15:09:48.916Z,76.70
2022-11-24T15:12:30.751Z,76.80
2022-11-24T15:15:20.606Z,73.30
2022-11-24T15:17:52.541Z,72.40
2022-11-24T15:20:28.732Z,72.60
2022-11-24T15:23:25.464Z,71.80
2022-11-24T15:25:55.068Z,71.70
2022-11-24T15:28:28.394Z,71.80
2022-11-24T15:31:15.869Z,71.60
2022-11-24T15:33:43.217Z,69.50
2022-11-24T15:36:12.464Z,69.80
2022-11-24T15:38:39.694Z,70.00
2022-11-24T15:41:18.490Z,71.50
2022-11-24T15:43:46.366Z,75.10
2022-11-24T15:46:14.009Z,78.30
2022-11-24T15:48:41.286Z,80.80
2022-11-24T15:51:13.467Z,81.90
2022-11-24T15:54:00.330Z,81.20
2022-11-24T15:56:31.430Z,81.10
2022-11-24T15:58:58.693Z,80.20
2022-11-24T16:01:30.367Z,80.60
2022-11-24T16:03:57.890Z,81.20
2022-11-24T16:06:25.688Z,82.00
2022-11-24T16:08:54.396Z,82.70
2022-11-24T16:11:22.976Z,81.60
2022-11-24T16:13:53.335Z,81.80
2022-11-24T16:16:22.372Z,81.40
2022-11-24T16:18:49.834Z,81.80
2022-11-24T16:21:17.193Z,81.40
2022-11-24T16:23:44.518Z,81.80
2022-11-24T16:26:11.572Z,79.60
2022-11-24T16:28:38.906Z,74.20
2022-11-24T16:31:06.152Z,71.60
2022-11-24T16:33:33.385Z,71.20
2022-11-24T16:36:00.600Z,72.10
2022-11-24T16:38:27.854Z,72.90
2022-11-24T16:40:56.479Z,73.20
2022-11-24T16:43:24.741Z,72.10
2022-11-24T16:46:22.010Z,72.20
2022-11-24T16:48:51.949Z,72.70
2022-11-24T16:51:22.692Z,72.70
2022-11-24T16:53:57.726Z,73.20
2022-11-24T16:56:24.989Z,72.70
2022-11-24T16:58:52.174Z,72.80
2022-11-24T17:01:19.418Z,72.10
2022-11-24T17:03:46.662Z,72.40
2022-11-24T17:06:16.339Z,72.80
2022-11-24T17:08:45.407Z,73.20
2022-11-24T17:11:15.797Z,73.80
2022-11-24T17:13:44.040Z,74.30
2022-11-24T17:16:13.511Z,75.60
2022-11-24T17:18:41.005Z,76.50
2022-11-24T17:21:12.001Z,78.20
2022-11-24T17:23:39.341Z,78.90
2022-11-24T17:26:09.031Z,79.30
2022-11-24T17:28:36.980Z,80.40
2022-11-24T17:31:07.946Z,81.30
2022-11-24T17:33:37.103Z,81.60
2022-11-24T17:36:05.792Z,81.80
2022-11-24T17:38:33.000Z,81.70
2022-11-24T17:41:00.097Z,81.70
2022-11-24T17:43:27.685Z,81.30
2022-11-24T17:45:56.786Z,81.20
2022-11-24T17:48:24.258Z,81.70
2022-11-24T17:51:05.048Z,82.40
2022-11-24T17:53:32.387Z,82.90
2022-11-24T17:56:00.949Z,82.90
2022-11-24T17:58:29.079Z,83.00
2022-11-24T18:00:57.416Z,82.80
2022-11-24T18:03:28.924Z,82.70
2022-11-24T18:05:56.452Z,82.60
2022-11-24T18:08:24.368Z,82.60
2022-11-24T18:10:51.457Z,82.80
2022-11-24T18:13:48.406Z,81.90
2022-11-24T18:16:08.419Z,82.00
2022-11-24T18:18:40.154Z,81.90
2022-11-24T18:21:11.836Z,80.20
2022-11-24T18:23:39.212Z,80.30
2022-11-24T18:26:07.009Z,78.80
2022-11-24T18:28:35.292Z,76.10
2022-11-24T18:31:07.446Z,75.70
2022-11-24T18:33:37.966Z,76.50
2022-11-24T18:36:07.104Z,76.60
2022-11-24T18:38:37.655Z,77.20
2022-11-24T18:41:06.509Z,77.50
2022-11-24T18:43:36.568Z,76.50
2022-11-24T18:46:08.352Z,76.40
2022-11-24T18:48:35.871Z,75.30
2022-11-24T18:51:03.658Z,75.40
2022-11-24T18:53:30.838Z,74.80
2022-11-24T18:56:03.502Z,74.80
2022-11-24T18:58:32.361Z,75.00
2022-11-24T19:01:15.080Z,74.20
2022-11-24T19:03:51.149Z,72.50
2022-11-24T19:06:22.454Z,72.80
2022-11-24T19:08:53.514Z,72.90
2022-11-24T19:11:29.317Z,72.70
2022-11-24T19:13:57.306Z,72.30
2022-11-24T19:16:25.739Z,72.10
2022-11-24T19:18:56.895Z,71.80
2022-11-24T19:21:24.103Z,71.70
2022-11-24T19:23:51.323Z,71.20
2022-11-24T19:26:20.868Z,71.50
2022-11-24T19:28:48.337Z,71.50
2022-11-24T19:31:17.477Z,71.00
2022-11-24T19:33:45.559Z,71.10
2022-11-24T19:36:19.118Z,71.10
2022-11-24T19:38:54.929Z,71.60
2022-11-24T19:41:25.056Z,72.80
2022-11-24T19:43:55.572Z,72.00
2022-11-24T19:46:29.487Z,71.80
2022-11-24T19:48:59.529Z,72.40
2022-11-24T19:51:30.861Z,73.20
2022-11-24T19:53:58.572Z,73.70
2022-11-24T19:56:28.220Z,74.20
2022-11-24T19:58:55.945Z,74.60
2022-11-24T20:01:29.977Z,75.10
2022-11-24T20:04:03.342Z,75.60
2022-11-24T20:06:39.279Z,76.30
2022-11-24T20:09:09.141Z,76.40
2022-11-24T20:11:36.757Z,76.20
2022-11-24T20:14:06.854Z,76.10
2022-11-24T20:16:35.241Z,76.20
2022-11-24T20:19:09.577Z,76.40
2022-11-24T20:21:38.544Z,75.60
2022-11-24T20:24:14.731Z,75.90
2022-11-24T20:26:50.940Z,75.80
2022-11-24T20:29:19.032Z,76.20
2022-11-24T20:31:54.569Z,76.00
2022-11-24T20:34:22.291Z,76.00
2022-11-24T20:36:49.804Z,75.60
2022-11-24T20:39:20.005Z,75.40
2022-11-24T20:41:47.208Z,71.90
2022-11-24T20:44:16.999Z,70.90
2022-11-24T20:46:45.461Z,70.40
2022-11-24T20:49:18.720Z,68.90
2022-11-24T20:51:49.583Z,69.00
2022-11-24T20:54:18.360Z,68.40
2022-11-24T20:56:46.629Z,68.80
2022-11-24T20:59:21.662Z,68.90
2022-11-24T21:01:50.204Z,69.50
2022-11-24T21:04:20.457Z,69.00
2022-11-24T21:06:48.084Z,68.60
2022-11-24T21:09:15.605Z,67.30
2022-11-24T21:11:43.285Z,67.00
2022-11-24T21:14:11.045Z,67.70
2022-11-24T21:16:40.033Z,68.00
2022-11-24T21:19:12.946Z,67.70
2022-11-24T21:21:42.817Z,67.70
2022-11-24T21:24:12.946Z,68.40
2022-11-24T21:26:40.769Z,69.40
2022-11-24T21:29:09.211Z,70.30
2022-11-24T21:31:37.641Z,71.60
2022-11-24T21:34:06.157Z,73.50
2022-11-24T21:36:35.187Z,75.60
2022-11-24T21:39:03.499Z,76.70
2022-11-24T21:41:33.500Z,77.40
2022-11-24T21:44:01.335Z,78.00
2022-11-24T21:46:39.055Z,78.30
2022-11-24T21:49:09.694Z,78.50
2022-11-24T21:51:36.960Z,79.10
2022-11-24T21:54:04.187Z,79.80
2022-11-24T21:56:31.386Z,80.70
2022-11-24T21:58:58.790Z,81.60
2022-11-24T22:01:28.174Z,81.80
2022-11-24T22:03:55.935Z,82.20
2022-11-24T22:06:23.212Z,82.50
2022-11-24T22:08:50.653Z,82.60
2022-11-24T22:11:22.744Z,82.50
2022-11-24T22:13:51.150Z,82.50
2022-11-24T22:16:23.302Z,82.60
2022-11-24T22:18:50.791Z,82.70
2022-11-24T22:21:20.493Z,82.70
2022-11-24T22:23:52.507Z,82.90
2022-11-24T22:26:22.236Z,83.40
2022-11-24T22:28:51.404Z,83.70
2022-11-24T22:31:23.422Z,83.60
2022-11-24T22:33:51.804Z,83.10
2022-11-24T22:36:21.611Z,82.90
2022-11-24T22:38:55.993Z,81.70
2022-11-24T22:41:23.693Z,81.00
2022-11-24T22:43:51.188Z,81.00
2022-11-24T22:46:19.884Z,81.30
2022-11-24T22:48:48.750Z,81.60
2022-11-24T22:51:19.879Z,81.90
2022-11-24T22:53:52.172Z,82.10
2022-11-24T22:56:19.943Z,82.70
2022-11-24T22:58:47.340Z,83.00
2022-11-24T23:01:17.126Z,82.90
2022-11-24T23:03:44.936Z,82.70
2022-11-24T23:06:14.541Z,83.00
2022-11-24T23:08:42.145Z,83.60
2022-11-24T23:11:12.753Z,83.80
2022-11-24T23:13:40.537Z,83.80
2022-11-24T23:16:10.808Z,84.00
2022-11-24T23:18:38.709Z,84.10
2022-11-24T23:21:13.388Z,83.60
2022-11-24T23:23:41.006Z,83.70
2022-11-24T23:26:19.567Z,84.20
2022-11-24T23:28:47.019Z,84.30
2022-11-24T23:31:16.470Z,83.90
2022-11-24T23:33:44.824Z,84.10
2022-11-24T23:36:17.438Z,84.20
2022-11-24T23:38:45.169Z,84.60
2022-11-24T23:41:15.319Z,85.10
2022-11-24T23:43:43.143Z,84.70
2022-11-24T23:46:13.294Z,85.10
2022-11-24T23:48:40.926Z,84.90
2022-11-24T23:51:13.313Z,84.90
2022-11-24T23:53:40.908Z,85.40
2022-11-24T23:56:08.553Z,86.20
2022-11-24T23:58:35.636Z,86.20
